• Join FlightAware (Why Join?)
  • Login
  • US Flag 
10:48AM EDT


 

Airport Tracker/Info


-or-


 

Live Flight TrackerFlight Track Log ✈ ASQ5685 ✈ 20-Jul-2013 ✈ KATL - KIAD

Flight Track Log - Related Links

Times and Time Zones

All times are in EDT time to prevent confusion due to time zone crossing. See the ASQ5685 flight status page for this flight to view local times or setup timezone preferences in your user account.

Time Position Orientation Groundspeed Altitude Reporting Facility
EDT Latitude Longitude Course Direction KTS MPH feet Rate Location/Type
09:28AM 33.6333 -84.4667 48° Northeast 176 203 2,000  Level Atlanta TRACON
09:29AM 33.6167 -84.5333 253° West 229 264 3,200 1,560 Climbing Atlanta TRACON
09:30AM 33.5667 -84.5833 220° Southwest 270 311 5,200 2,040 Climbing Atlanta TRACON
09:31AM 33.7538 -83.9715 54° Northeast  Level FlightAware Approximate
09:31AM 33.4833 -84.5833 180° South 280 322 7,300  Level Atlanta TRACON
09:32AM 33.8114 -83.8757 54° Northeast  Level FlightAware Approximate
09:32AM 33.4553 -84.4719 107° East 285 328 10,000  Level Atlanta Center
09:33AM 33.8692 -83.7800 48° Northeast  Level FlightAware Approximate
09:33AM 33.4556 -84.3725 90° East 287 330 11,600  Level Atlanta Center
09:34AM 33.4664 -84.2681 83° East 306 352 12,700 1,020 Climbing Atlanta Center
09:35AM 33.5333 -84.1883 45° Northeast 311 358 13,700 960 Climbing Atlanta Center
09:36AM 33.6022 -84.1061 45° Northeast 336 387 14,700 960 Climbing Atlanta Center
09:37AM 33.6753 -84.0164 46° Northeast 360 414 15,700 960 Climbing Atlanta Center
09:38AM 33.7503 -83.9289 44° Northeast 367 422 16,700 960 Climbing Atlanta Center
09:39AM 33.8336 -83.8311 44° Northeast 367 422 17,700 900 Climbing Atlanta Center
09:40AM 33.9086 -83.7408 45° Northeast 372 428 18,600 960 Climbing Atlanta Center
09:41AM 33.9753 -83.6456 50° Northeast 380 437 19,700 1,020 Climbing Atlanta Center
09:42AM 34.0375 -83.5425 54° Northeast 375 432 20,700 900 Climbing Atlanta Center
09:43AM 34.1017 -83.4392 53° Northeast 375 432 21,600 780 Climbing Atlanta Center
09:44AM 34.1658 -83.3383 52° Northeast 375 432 22,300 660 Climbing Atlanta Center
09:45AM 34.2300 -83.2347 53° Northeast 375 432 23,000 720 Climbing Atlanta Center
09:46AM 34.2961 -83.1311 52° Northeast 380 437 23,800 600 Climbing Atlanta Center
09:47AM 34.3578 -83.0247 55° Northeast 387 445 24,300 480 Climbing Atlanta Center
09:48AM 34.4256 -82.9156 53° Northeast 392 451 24,800 480 Climbing Atlanta Center
09:49AM 34.4936 -82.8089 52° Northeast 392 451 25,300 480 Climbing Atlanta Center
09:50AM 34.5553 -82.7147 51° Northeast 392 451 25,800 480 Climbing Atlanta Center
09:51AM 34.6206 -82.6025 55° Northeast 402 463 26,300 480 Climbing Atlanta Center
09:52AM 34.6964 -82.4825 52° Northeast 402 463 26,800 480 Climbing Atlanta Center
09:53AM 34.7639 -82.3725 53° Northeast 402 463 27,300 480 Climbing Atlanta Center
09:54AM 34.8311 -82.2650 53° Northeast 407 468 27,800 480 Climbing Atlanta Center
09:55AM 34.8964 -82.1522 55° Northeast 407 468 28,300 480 Climbing Atlanta Center
09:56AM 34.9575 -82.0569 52° Northeast 407 468 28,800 300 Climbing Atlanta Center
09:57AM 35.0244 -81.9464 53° Northeast 407 468 29,000 60 Climbing Atlanta Center
09:58AM 35.0869 -81.8281 57° Northeast 412 474 29,000  Level Atlanta Center
09:59AM 35.1475 -81.7119 57° Northeast 407 468 29,000  Level Atlanta Center
10:00AM 35.2097 -81.5933 57° Northeast 407 468 29,000  Level Atlanta Center
10:01AM 35.2781 -81.4642 57° Northeast 407 468 29,000  Level Atlanta Center
10:02AM 35.3403 -81.3450 57° Northeast 412 474 29,000  Level Atlanta Center
10:03AM 35.4022 -81.2258 57° Northeast 412 474 29,000  Level Atlanta Center
10:04AM 35.4642 -81.1039 58° Northeast 417 480 29,000  Level Atlanta Center
10:05AM 35.5281 -80.9842 57° Northeast 423 487 29,000  Level Atlanta Center
10:06AM 35.5936 -80.8592 57° Northeast 423 487 29,000  Level Atlanta Center
10:07AM 35.6569 -80.7342 58° Northeast 423 487 29,000  Level Atlanta Center
10:08AM 35.7225 -80.6086 57° Northeast 423 487 29,000  Level Atlanta Center
10:09AM 35.7878 -80.4831 57° Northeast 423 487 29,000  Level Atlanta Center
10:10AM 35.8528 -80.3547 58° Northeast 423 487 29,000  Level Atlanta Center
10:11AM 35.9097 -80.2417 58° Northeast 428 493 29,000  Level Atlanta Center
10:13AM 36.0464 -79.9797 57° Northeast 434 499 29,000  Level Washington Center
10:14AM 36.1156 -79.8525 56° Northeast 434 499 29,000  Level Washington Center
10:15AM 36.1956 -79.7153 54° Northeast 444 511 29,000  Level Washington Center
10:16AM 36.2644 -79.5900 56° Northeast 444 511 29,000  Level Washington Center
10:17AM 36.3375 -79.4650 54° Northeast 444 511 29,000  Level Washington Center
10:18AM 36.4064 -79.3342 57° Northeast 439 505 29,000  Level Washington Center
10:19AM 36.4769 -79.2083 55° Northeast 444 511 29,000 -120 Level Washington Center
10:20AM 36.5450 -79.0978 53° Northeast 444 511 28,800 -960 Descending Washington Center
10:21AM 36.6178 -78.9614 56° Northeast 444 511 27,200 -1,680 Descending Washington Center
10:22AM 36.6925 -78.8219 56° Northeast 463 533 25,500 -1,140 Descending Washington Center
10:23AM 36.7669 -78.6878 55° Northeast 473 544 25,000 -300 Descending Washington Center
10:24AM 36.8558 -78.5589 49° Northeast 465 535 25,000  Level Washington Center
10:25AM 36.9581 -78.4744 33° Northeast 439 505 25,000 -540 Level Washington Center
10:26AM 37.0622 -78.3872 34° Northeast 439 505 24,000 -1,020 Descending Washington Center
10:27AM 37.1708 -78.3000 33° Northeast 455 524 23,100 -960 Descending Washington Center
10:28AM 37.2706 -78.2175 33° Northeast 470 541 22,100 -1,080 Descending Washington Center
10:29AM 37.3853 -78.1194 34° Northeast 464 534 21,000 -600 Descending Washington Center
10:30AM 37.4894 -78.0339 33° Northeast 453 521 21,000  Level Washington Center
10:31AM 37.5869 -77.9506 34° Northeast 441 507 21,000  Level Washington Center
10:32AM 37.6867 -77.8694 33° Northeast 429 494 21,000 -900 Level Washington Center
10:33AM 37.7819 -77.7858 35° Northeast 424 488 19,300 -2,160 Descending Washington Center
10:34AM 37.8753 -77.7069 34° Northeast 414 476 16,800 -2,520 Descending Washington Center
10:35AM 37.9619 -77.6356 33° Northeast 389 448 14,300 -2,460 Descending Washington Center
10:36AM 38.0444 -77.5667 33° Northeast 375 432 11,900 -2,160 Descending Washington Center
10:37AM 38.1206 -77.5000 35° Northeast 349 402 10,100 -960 Descending Washington Center
10:38AM 38.1925 -77.4411 33° Northeast 324 373 10,000 -360 Descending Washington Center
10:39AM 38.2681 -77.3953 25° Northeast 304 350 9,400 -840 Descending Washington Center
10:40AM 38.3439 -77.3575 21° North 292 336 8,400 -840 Descending Washington Center
10:41AM 38.4231 -77.3594 359° North 287 330 7,800 -900 Descending Washington Center
10:42AM 38.5000 -77.3611 359° North 277 319 6,700 -1,080 Descending Washington Center
10:43AM 38.5750 -77.3656 357° North 272 313 5,700 -840 Descending Washington Center
10:44AM 38.6481 -77.3647 North 272 313 5,000 -360 Descending Washington Center
10:45AM 38.7333 -77.3667 359° North 264 304 5,000 -480 Level Potomac TRACON
10:46AM 38.8000 -77.3500 11° North 262 302 4,100 -960 Descending Potomac TRACON
10:47AM 38.8833 -77.3500 360° North 260 299 3,100 -600 Descending Potomac TRACON
10:48AM 38.9500 -77.3500 360° North 263 303 3,000 -60 Descending Potomac TRACON
10:49AM 39.0167 -77.3500 360° North 231 266 3,000  Level Potomac TRACON